Terminal Aerodrome Forecast
Issued by NWS

Home | Current Version | Previous Version | Text Only | Print | Product List | Glossary On
Versions: 1 2 3 4 5 6 7 8 9 10 11 12 13 14 15 16 17
000
FTUS45 KGGW 201134
TAFOLF
TAF
KOLF 201134Z 2012/2112 08006KT P6SM SKC
     FM201400 13012KT P6SM SKC
     FM210300 12008KT P6SM FEW250
     FM210900 09006KT P6SM FEW200 WS020/19030KT=

USA.gov is the U.S. government's official web portal to all federal, state and local government web resources and services.